sensor_id;sensor_type;location;lat;lon;timestamp;P1;durP1;ratioP1;P2;durP2;ratioP2
10403;SDS011;5248;47.374;8.486;2022-10-16T00:01:45;3.03;;;2.00;;
10403;SDS011;5248;47.374;8.486;2022-10-16T00:04:12;3.47;;;2.13;;
10403;SDS011;5248;47.374;8.486;2022-10-16T00:06:39;2.77;;;1.80;;
10403;SDS011;5248;47.374;8.486;2022-10-16T00:09:06;4.40;;;2.60;;
10403;SDS011;5248;47.374;8.486;2022-10-16T00:11:33;2.67;;;2.40;;
10403;SDS011;5248;47.374;8.486;2022-10-16T00:14:05;7.40;;;2.47;;
10403;SDS011;5248;47.374;8.486;2022-10-16T00:16:33;3.20;;;2.30;;
10403;SDS011;5248;47.374;8.486;2022-10-16T00:19:00;3.07;;;2.20;;
10403;SDS011;5248;47.374;8.486;2022-10-16T00:21:27;3.57;;;1.90;;
10403;SDS011;5248;47.374;8.486;2022-10-16T00:23:56;6.03;;;2.03;;
10403;SDS011;5248;47.374;8.486;2022-10-16T00:26:25;3.87;;;1.53;;
10403;SDS011;5248;47.374;8.486;2022-10-16T00:28:52;3.93;;;1.80;;
10403;SDS011;5248;47.374;8.486;2022-10-16T00:31:21;4.00;;;1.40;;
10403;SDS011;5248;47.374;8.486;2022-10-16T00:33:49;5.20;;;1.17;;
10403;SDS011;5248;47.374;8.486;2022-10-16T00:36:16;6.43;;;1.60;;
10403;SDS011;5248;47.374;8.486;2022-10-16T00:38:44;3.97;;;1.43;;
10403;SDS011;5248;47.374;8.486;2022-10-16T00:41:14;5.23;;;1.37;;
10403;SDS011;5248;47.374;8.486;2022-10-16T00:43:42;4.90;;;1.50;;
10403;SDS011;5248;47.374;8.486;2022-10-16T00:46:12;2.17;;;1.47;;
10403;SDS011;5248;47.374;8.486;2022-10-16T00:48:44;3.37;;;1.17;;
10403;SDS011;5248;47.374;8.486;2022-10-16T00:51:16;3.20;;;1.53;;
10403;SDS011;5248;47.374;8.486;2022-10-16T00:53:46;4.70;;;1.70;;
10403;SDS011;5248;47.374;8.486;2022-10-16T00:56:12;8.47;;;2.57;;
10403;SDS011;5248;47.374;8.486;2022-10-16T00:58:39;3.70;;;2.27;;
10403;SDS011;5248;47.374;8.486;2022-10-16T01:01:06;5.10;;;2.43;;
10403;SDS011;5248;47.374;8.486;2022-10-16T01:03:33;2.17;;;2.03;;
10403;SDS011;5248;47.374;8.486;2022-10-16T01:06:06;5.03;;;1.93;;
10403;SDS011;5248;47.374;8.486;2022-10-16T01:08:44;3.80;;;2.27;;
10403;SDS011;5248;47.374;8.486;2022-10-16T01:11:17;5.07;;;2.57;;
10403;SDS011;5248;47.374;8.486;2022-10-16T01:13:46;4.27;;;2.87;;
10403;SDS011;5248;47.374;8.486;2022-10-16T01:16:18;5.27;;;2.87;;
10403;SDS011;5248;47.374;8.486;2022-10-16T01:18:49;11.90;;;3.00;;
10403;SDS011;5248;47.374;8.486;2022-10-16T01:21:22;3.93;;;2.43;;
10403;SDS011;5248;47.374;8.486;2022-10-16T01:23:51;4.20;;;2.40;;
10403;SDS011;5248;47.374;8.486;2022-10-16T01:26:31;6.47;;;2.50;;
10403;SDS011;5248;47.374;8.486;2022-10-16T01:29:06;6.87;;;2.47;;
10403;SDS011;5248;47.374;8.486;2022-10-16T01:31:35;4.53;;;2.30;;
10403;SDS011;5248;47.374;8.486;2022-10-16T01:34:05;3.80;;;2.30;;
10403;SDS011;5248;47.374;8.486;2022-10-16T01:36:35;3.77;;;1.93;;
10403;SDS011;5248;47.374;8.486;2022-10-16T01:39:05;4.03;;;2.27;;
10403;SDS011;5248;47.374;8.486;2022-10-16T01:41:33;8.73;;;2.20;;
10403;SDS011;5248;47.374;8.486;2022-10-16T01:44:04;4.97;;;1.70;;
10403;SDS011;5248;47.374;8.486;2022-10-16T01:46:34;3.87;;;1.80;;
10403;SDS011;5248;47.374;8.486;2022-10-16T01:49:02;5.07;;;2.07;;
10403;SDS011;5248;47.374;8.486;2022-10-16T01:51:29;4.47;;;3.60;;
10403;SDS011;5248;47.374;8.486;2022-10-16T01:53:56;5.07;;;2.83;;
10403;SDS011;5248;47.374;8.486;2022-10-16T01:56:24;3.87;;;2.00;;
10403;SDS011;5248;47.374;8.486;2022-10-16T01:58:52;5.30;;;3.00;;
10403;SDS011;5248;47.374;8.486;2022-10-16T02:01:22;5.33;;;2.50;;
10403;SDS011;5248;47.374;8.486;2022-10-16T02:03:50;5.63;;;1.80;;
10403;SDS011;5248;47.374;8.486;2022-10-16T02:06:18;5.77;;;1.97;;
10403;SDS011;5248;47.374;8.486;2022-10-16T02:08:45;6.67;;;2.60;;
10403;SDS011;5248;47.374;8.486;2022-10-16T02:11:12;1.57;;;1.40;;
10403;SDS011;5248;47.374;8.486;2022-10-16T02:13:39;3.00;;;1.93;;
10403;SDS011;5248;47.374;8.486;2022-10-16T02:16:09;3.03;;;2.03;;
10403;SDS011;5248;47.374;8.486;2022-10-16T02:18:38;4.10;;;2.27;;
10403;SDS011;5248;47.374;8.486;2022-10-16T02:21:06;3.90;;;1.93;;
10403;SDS011;5248;47.374;8.486;2022-10-16T02:23:37;6.13;;;1.90;;
10403;SDS011;5248;47.374;8.486;2022-10-16T02:26:11;5.43;;;1.53;;
10403;SDS011;5248;47.374;8.486;2022-10-16T02:28:40;2.47;;;1.47;;
10403;SDS011;5248;47.374;8.486;2022-10-16T02:31:10;4.37;;;1.90;;
10403;SDS011;5248;47.374;8.486;2022-10-16T02:33:40;4.73;;;1.70;;
10403;SDS011;5248;47.374;8.486;2022-10-16T02:36:07;3.30;;;1.87;;
10403;SDS011;5248;47.374;8.486;2022-10-16T02:38:34;4.37;;;1.57;;
10403;SDS011;5248;47.374;8.486;2022-10-16T02:41:03;2.70;;;1.60;;
10403;SDS011;5248;47.374;8.486;2022-10-16T02:43:31;1.67;;;1.50;;
10403;SDS011;5248;47.374;8.486;2022-10-16T02:45:58;1.40;;;1.30;;
10403;SDS011;5248;47.374;8.486;2022-10-16T02:48:25;7.87;;;1.80;;
10403;SDS011;5248;47.374;8.486;2022-10-16T02:50:53;2.97;;;1.67;;
10403;SDS011;5248;47.374;8.486;2022-10-16T02:53:19;6.23;;;1.67;;
10403;SDS011;5248;47.374;8.486;2022-10-16T02:55:47;3.93;;;1.40;;
10403;SDS011;5248;47.374;8.486;2022-10-16T02:58:14;7.37;;;1.63;;
10403;SDS011;5248;47.374;8.486;2022-10-16T03:00:41;8.73;;;1.80;;
10403;SDS011;5248;47.374;8.486;2022-10-16T03:03:08;2.50;;;1.40;;
10403;SDS011;5248;47.374;8.486;2022-10-16T03:05:34;5.27;;;1.83;;
10403;SDS011;5248;47.374;8.486;2022-10-16T03:08:02;6.27;;;1.70;;
10403;SDS011;5248;47.374;8.486;2022-10-16T03:10:29;2.93;;;1.63;;
10403;SDS011;5248;47.374;8.486;2022-10-16T03:12:56;9.30;;;1.60;;
10403;SDS011;5248;47.374;8.486;2022-10-16T03:15:24;7.33;;;1.60;;
10403;SDS011;5248;47.374;8.486;2022-10-16T03:17:51;3.87;;;1.40;;
10403;SDS011;5248;47.374;8.486;2022-10-16T03:20:17;6.90;;;1.90;;
10403;SDS011;5248;47.374;8.486;2022-10-16T03:22:45;8.00;;;2.40;;
10403;SDS011;5248;47.374;8.486;2022-10-16T03:25:13;4.13;;;1.93;;
10403;SDS011;5248;47.374;8.486;2022-10-16T03:27:40;3.63;;;1.43;;
10403;SDS011;5248;47.374;8.486;2022-10-16T03:30:07;3.23;;;1.50;;
10403;SDS011;5248;47.374;8.486;2022-10-16T03:32:35;4.43;;;1.30;;
10403;SDS011;5248;47.374;8.486;2022-10-16T03:35:01;3.40;;;1.27;;
10403;SDS011;5248;47.374;8.486;2022-10-16T03:37:28;2.97;;;1.60;;
10403;SDS011;5248;47.374;8.486;2022-10-16T03:39:55;5.70;;;1.50;;
10403;SDS011;5248;47.374;8.486;2022-10-16T03:42:23;6.63;;;1.50;;
10403;SDS011;5248;47.374;8.486;2022-10-16T03:44:50;3.13;;;1.10;;
10403;SDS011;5248;47.374;8.486;2022-10-16T03:47:16;6.97;;;1.13;;
10403;SDS011;5248;47.374;8.486;2022-10-16T03:49:46;2.83;;;1.20;;
10403;SDS011;5248;47.374;8.486;2022-10-16T03:52:13;8.93;;;1.30;;
10403;SDS011;5248;47.374;8.486;2022-10-16T03:54:39;4.80;;;1.20;;
10403;SDS011;5248;47.374;8.486;2022-10-16T03:57:06;2.47;;;1.10;;
10403;SDS011;5248;47.374;8.486;2022-10-16T03:59:35;2.00;;;1.07;;
10403;SDS011;5248;47.374;8.486;2022-10-16T04:02:01;3.27;;;1.30;;
10403;SDS011;5248;47.374;8.486;2022-10-16T04:04:28;3.63;;;1.03;;
10403;SDS011;5248;47.374;8.486;2022-10-16T04:06:55;4.20;;;1.40;;
10403;SDS011;5248;47.374;8.486;2022-10-16T04:09:22;1.43;;;1.33;;
10403;SDS011;5248;47.374;8.486;2022-10-16T04:11:49;3.40;;;1.43;;
10403;SDS011;5248;47.374;8.486;2022-10-16T04:14:16;2.47;;;1.40;;
10403;SDS011;5248;47.374;8.486;2022-10-16T04:16:44;8.37;;;1.47;;
10403;SDS011;5248;47.374;8.486;2022-10-16T04:19:11;3.30;;;1.60;;
10403;SDS011;5248;47.374;8.486;2022-10-16T04:21:38;2.00;;;1.27;;
10403;SDS011;5248;47.374;8.486;2022-10-16T04:24:05;1.33;;;1.20;;
10403;SDS011;5248;47.374;8.486;2022-10-16T04:26:31;3.17;;;1.10;;
10403;SDS011;5248;47.374;8.486;2022-10-16T04:28:58;1.43;;;1.33;;
10403;SDS011;5248;47.374;8.486;2022-10-16T04:31:25;5.07;;;1.40;;
10403;SDS011;5248;47.374;8.486;2022-10-16T04:33:53;7.67;;;1.67;;
10403;SDS011;5248;47.374;8.486;2022-10-16T04:36:19;4.10;;;1.50;;
10403;SDS011;5248;47.374;8.486;2022-10-16T04:38:46;3.90;;;1.47;;
10403;SDS011;5248;47.374;8.486;2022-10-16T04:41:13;3.23;;;1.60;;
10403;SDS011;5248;47.374;8.486;2022-10-16T04:43:39;4.93;;;1.60;;
10403;SDS011;5248;47.374;8.486;2022-10-16T04:46:06;2.70;;;1.60;;
10403;SDS011;5248;47.374;8.486;2022-10-16T04:48:32;4.63;;;1.70;;
10403;SDS011;5248;47.374;8.486;2022-10-16T04:51:01;3.90;;;1.90;;
10403;SDS011;5248;47.374;8.486;2022-10-16T04:53:27;1.73;;;1.47;;
10403;SDS011;5248;47.374;8.486;2022-10-16T04:55:54;1.90;;;1.80;;
10403;SDS011;5248;47.374;8.486;2022-10-16T04:58:21;9.23;;;1.80;;
10403;SDS011;5248;47.374;8.486;2022-10-16T05:00:47;6.23;;;1.57;;
10403;SDS011;5248;47.374;8.486;2022-10-16T05:03:14;4.27;;;2.03;;
10403;SDS011;5248;47.374;8.486;2022-10-16T05:05:42;7.97;;;1.80;;
10403;SDS011;5248;47.374;8.486;2022-10-16T05:08:10;4.57;;;1.90;;
10403;SDS011;5248;47.374;8.486;2022-10-16T05:10:37;2.67;;;1.70;;
10403;SDS011;5248;47.374;8.486;2022-10-16T05:13:05;2.30;;;2.00;;
10403;SDS011;5248;47.374;8.486;2022-10-16T05:15:32;3.37;;;1.97;;
10403;SDS011;5248;47.374;8.486;2022-10-16T05:17:59;5.40;;;1.97;;
10403;SDS011;5248;47.374;8.486;2022-10-16T05:20:25;5.17;;;2.00;;
10403;SDS011;5248;47.374;8.486;2022-10-16T05:22:52;5.07;;;1.70;;
10403;SDS011;5248;47.374;8.486;2022-10-16T05:25:20;3.90;;;1.80;;
10403;SDS011;5248;47.374;8.486;2022-10-16T05:27:47;1.93;;;1.80;;
10403;SDS011;5248;47.374;8.486;2022-10-16T05:30:14;2.77;;;1.60;;
10403;SDS011;5248;47.374;8.486;2022-10-16T05:32:41;4.07;;;1.73;;
10403;SDS011;5248;47.374;8.486;2022-10-16T05:35:08;2.87;;;1.80;;
10403;SDS011;5248;47.374;8.486;2022-10-16T05:37:34;4.77;;;2.03;;
10403;SDS011;5248;47.374;8.486;2022-10-16T05:40:01;3.17;;;1.87;;
10403;SDS011;5248;47.374;8.486;2022-10-16T05:42:31;2.20;;;1.60;;
10403;SDS011;5248;47.374;8.486;2022-10-16T05:44:58;4.43;;;1.93;;
10403;SDS011;5248;47.374;8.486;2022-10-16T05:47:24;4.27;;;1.73;;
10403;SDS011;5248;47.374;8.486;2022-10-16T05:49:51;1.37;;;1.27;;
10403;SDS011;5248;47.374;8.486;2022-10-16T05:52:18;3.37;;;1.40;;
10403;SDS011;5248;47.374;8.486;2022-10-16T05:54:45;6.13;;;1.60;;
10403;SDS011;5248;47.374;8.486;2022-10-16T05:57:11;2.43;;;1.50;;
10403;SDS011;5248;47.374;8.486;2022-10-16T05:59:39;1.70;;;1.33;;
10403;SDS011;5248;47.374;8.486;2022-10-16T06:02:07;1.30;;;1.20;;
10403;SDS011;5248;47.374;8.486;2022-10-16T06:04:35;1.53;;;1.43;;
10403;SDS011;5248;47.374;8.486;2022-10-16T06:07:01;3.00;;;1.17;;
10403;SDS011;5248;47.374;8.486;2022-10-16T06:09:28;3.40;;;1.20;;
10403;SDS011;5248;47.374;8.486;2022-10-16T06:11:54;1.87;;;1.40;;
10403;SDS011;5248;47.374;8.486;2022-10-16T06:14:21;2.73;;;1.43;;
10403;SDS011;5248;47.374;8.486;2022-10-16T06:16:49;1.37;;;1.17;;
10403;SDS011;5248;47.374;8.486;2022-10-16T06:19:16;5.33;;;1.40;;
10403;SDS011;5248;47.374;8.486;2022-10-16T06:21:43;6.27;;;1.60;;
10403;SDS011;5248;47.374;8.486;2022-10-16T06:24:10;1.80;;;1.23;;
10403;SDS011;5248;47.374;8.486;2022-10-16T06:26:37;2.97;;;1.43;;
10403;SDS011;5248;47.374;8.486;2022-10-16T06:29:04;1.67;;;1.10;;
10403;SDS011;5248;47.374;8.486;2022-10-16T06:31:30;2.60;;;1.20;;
10403;SDS011;5248;47.374;8.486;2022-10-16T06:33:59;3.30;;;0.80;;
10403;SDS011;5248;47.374;8.486;2022-10-16T06:36:27;5.20;;;1.70;;
10403;SDS011;5248;47.374;8.486;2022-10-16T06:38:53;4.30;;;1.97;;
10403;SDS011;5248;47.374;8.486;2022-10-16T06:41:21;4.60;;;1.30;;
10403;SDS011;5248;47.374;8.486;2022-10-16T06:43:48;1.90;;;1.63;;
10403;SDS011;5248;47.374;8.486;2022-10-16T06:46:15;2.43;;;1.63;;
10403;SDS011;5248;47.374;8.486;2022-10-16T06:48:43;2.53;;;1.70;;
10403;SDS011;5248;47.374;8.486;2022-10-16T06:51:12;1.70;;;1.60;;
10403;SDS011;5248;47.374;8.486;2022-10-16T06:53:40;2.60;;;1.60;;
10403;SDS011;5248;47.374;8.486;2022-10-16T06:56:08;3.30;;;1.53;;
10403;SDS011;5248;47.374;8.486;2022-10-16T06:58:35;2.00;;;1.77;;
10403;SDS011;5248;47.374;8.486;2022-10-16T07:01:01;2.80;;;1.50;;
10403;SDS011;5248;47.374;8.486;2022-10-16T07:03:28;2.67;;;1.47;;
10403;SDS011;5248;47.374;8.486;2022-10-16T07:05:55;3.70;;;1.47;;
10403;SDS011;5248;47.374;8.486;2022-10-16T07:08:23;2.87;;;1.40;;
10403;SDS011;5248;47.374;8.486;2022-10-16T07:10:57;4.07;;;1.50;;
10403;SDS011;5248;47.374;8.486;2022-10-16T07:13:24;3.87;;;1.87;;
10403;SDS011;5248;47.374;8.486;2022-10-16T07:15:51;1.73;;;1.63;;
10403;SDS011;5248;47.374;8.486;2022-10-16T07:18:18;4.43;;;1.73;;
10403;SDS011;5248;47.374;8.486;2022-10-16T07:20:44;2.63;;;1.50;;
10403;SDS011;5248;47.374;8.486;2022-10-16T07:23:11;5.00;;;1.80;;
10403;SDS011;5248;47.374;8.486;2022-10-16T07:25:39;2.20;;;1.83;;
10403;SDS011;5248;47.374;8.486;2022-10-16T07:28:05;2.50;;;1.87;;
10403;SDS011;5248;47.374;8.486;2022-10-16T07:30:34;2.50;;;1.57;;
10403;SDS011;5248;47.374;8.486;2022-10-16T07:33:02;2.73;;;1.63;;
10403;SDS011;5248;47.374;8.486;2022-10-16T07:35:28;3.80;;;1.83;;
10403;SDS011;5248;47.374;8.486;2022-10-16T07:37:55;1.87;;;1.77;;
10403;SDS011;5248;47.374;8.486;2022-10-16T07:40:22;3.97;;;1.47;;
10403;SDS011;5248;47.374;8.486;2022-10-16T07:42:50;4.13;;;1.50;;
10403;SDS011;5248;47.374;8.486;2022-10-16T07:45:17;2.80;;;1.40;;
10403;SDS011;5248;47.374;8.486;2022-10-16T07:47:43;4.00;;;1.77;;
10403;SDS011;5248;47.374;8.486;2022-10-16T07:50:10;4.00;;;2.00;;
10403;SDS011;5248;47.374;8.486;2022-10-16T07:52:36;2.97;;;2.00;;
10403;SDS011;5248;47.374;8.486;2022-10-16T07:55:04;2.17;;;1.90;;
10403;SDS011;5248;47.374;8.486;2022-10-16T07:57:31;1.97;;;1.87;;
10403;SDS011;5248;47.374;8.486;2022-10-16T07:59:59;2.57;;;1.70;;
10403;SDS011;5248;47.374;8.486;2022-10-16T08:02:26;2.33;;;2.23;;
10403;SDS011;5248;47.374;8.486;2022-10-16T08:04:52;2.30;;;2.20;;
10403;SDS011;5248;47.374;8.486;2022-10-16T08:07:19;2.67;;;2.47;;
10403;SDS011;5248;47.374;8.486;2022-10-16T08:09:48;1.93;;;1.83;;
10403;SDS011;5248;47.374;8.486;2022-10-16T08:12:15;3.88;;;2.40;;
10403;SDS011;5248;47.374;8.486;2022-10-16T08:14:42;2.20;;;2.10;;
10403;SDS011;5248;47.374;8.486;2022-10-16T08:17:10;1.98;;;1.80;;
10403;SDS011;5248;47.374;8.486;2022-10-16T08:19:40;2.72;;;2.53;;
10403;SDS011;5248;47.374;8.486;2022-10-16T08:22:10;2.75;;;2.40;;
10403;SDS011;5248;47.374;8.486;2022-10-16T08:24:37;3.60;;;2.70;;
10403;SDS011;5248;47.374;8.486;2022-10-16T08:27:03;7.00;;;3.30;;
10403;SDS011;5248;47.374;8.486;2022-10-16T08:29:30;3.83;;;3.20;;
10403;SDS011;5248;47.374;8.486;2022-10-16T08:31:57;3.58;;;2.20;;
10403;SDS011;5248;47.374;8.486;2022-10-16T08:34:25;2.72;;;2.53;;
10403;SDS011;5248;47.374;8.486;2022-10-16T08:36:52;2.53;;;2.27;;
10403;SDS011;5248;47.374;8.486;2022-10-16T08:39:20;2.53;;;2.33;;
10403;SDS011;5248;47.374;8.486;2022-10-16T08:41:55;3.22;;;1.90;;
10403;SDS011;5248;47.374;8.486;2022-10-16T08:44:34;1.85;;;1.58;;
10403;SDS011;5248;47.374;8.486;2022-10-16T08:47:22;1.92;;;1.83;;
10403;SDS011;5248;47.374;8.486;2022-10-16T08:49:55;1.60;;;1.50;;
10403;SDS011;5248;47.374;8.486;2022-10-16T08:52:23;3.33;;;1.48;;
10403;SDS011;5248;47.374;8.486;2022-10-16T08:54:53;4.88;;;1.85;;
10403;SDS011;5248;47.374;8.486;2022-10-16T08:57:21;1.83;;;1.67;;
10403;SDS011;5248;47.374;8.486;2022-10-16T08:59:49;2.00;;;1.90;;
10403;SDS011;5248;47.374;8.486;2022-10-16T09:02:19;2.80;;;2.10;;
10403;SDS011;5248;47.374;8.486;2022-10-16T09:07:53;2.15;;;1.65;;
10403;SDS011;5248;47.374;8.486;2022-10-16T09:10:29;2.00;;;1.90;;
10403;SDS011;5248;47.374;8.486;2022-10-16T09:13:03;3.17;;;1.92;;
10403;SDS011;5248;47.374;8.486;2022-10-16T09:15:39;2.85;;;2.05;;
10403;SDS011;5248;47.374;8.486;2022-10-16T09:18:12;2.70;;;2.50;;
10403;SDS011;5248;47.374;8.486;2022-10-16T09:20:48;1.65;;;1.55;;
10403;SDS011;5248;47.374;8.486;2022-10-16T09:23:17;2.78;;;1.67;;
10403;SDS011;5248;47.374;8.486;2022-10-16T09:25:46;2.40;;;1.58;;
10403;SDS011;5248;47.374;8.486;2022-10-16T09:28:14;4.22;;;2.08;;
10403;SDS011;5248;47.374;8.486;2022-10-16T09:30:43;3.17;;;1.60;;
10403;SDS011;5248;47.374;8.486;2022-10-16T09:33:10;2.40;;;1.50;;
10403;SDS011;5248;47.374;8.486;2022-10-16T09:35:39;1.60;;;1.42;;
10403;SDS011;5248;47.374;8.486;2022-10-16T09:38:08;1.50;;;1.40;;
10403;SDS011;5248;47.374;8.486;2022-10-16T09:40:36;3.33;;;1.63;;
10403;SDS011;5248;47.374;8.486;2022-10-16T09:43:06;2.25;;;1.20;;
10403;SDS011;5248;47.374;8.486;2022-10-16T09:45:42;3.05;;;1.75;;
10403;SDS011;5248;47.374;8.486;2022-10-16T09:48:10;3.42;;;1.35;;
10403;SDS011;5248;47.374;8.486;2022-10-16T09:50:37;3.30;;;1.38;;
10403;SDS011;5248;47.374;8.486;2022-10-16T09:53:05;2.05;;;1.40;;
10403;SDS011;5248;47.374;8.486;2022-10-16T09:55:35;1.38;;;1.27;;
10403;SDS011;5248;47.374;8.486;2022-10-16T09:58:02;1.23;;;1.20;;
10403;SDS011;5248;47.374;8.486;2022-10-16T10:00:28;1.33;;;1.10;;
10403;SDS011;5248;47.374;8.486;2022-10-16T10:02:55;1.45;;;1.17;;
10403;SDS011;5248;47.374;8.486;2022-10-16T10:05:22;1.30;;;1.20;;
10403;SDS011;5248;47.374;8.486;2022-10-16T10:07:54;2.80;;;1.38;;
10403;SDS011;5248;47.374;8.486;2022-10-16T10:10:24;1.75;;;1.05;;
10403;SDS011;5248;47.374;8.486;2022-10-16T10:12:52;3.35;;;1.23;;
10403;SDS011;5248;47.374;8.486;2022-10-16T10:15:19;3.90;;;1.95;;
10403;SDS011;5248;47.374;8.486;2022-10-16T10:17:47;2.22;;;1.08;;
10403;SDS011;5248;47.374;8.486;2022-10-16T10:20:18;1.80;;;1.00;;
10403;SDS011;5248;47.374;8.486;2022-10-16T10:22:49;3.47;;;1.15;;
10403;SDS011;5248;47.374;8.486;2022-10-16T10:25:19;1.20;;;1.10;;
10403;SDS011;5248;47.374;8.486;2022-10-16T10:30:59;1.70;;;1.30;;
10403;SDS011;5248;47.374;8.486;2022-10-16T10:33:31;1.73;;;1.33;;
10403;SDS011;5248;47.374;8.486;2022-10-16T10:36:07;1.35;;;1.25;;
10403;SDS011;5248;47.374;8.486;2022-10-16T10:38:49;1.52;;;0.95;;
10403;SDS011;5248;47.374;8.486;2022-10-16T10:44:18;2.13;;;1.10;;
10403;SDS011;5248;47.374;8.486;2022-10-16T10:46:50;1.10;;;1.00;;
10403;SDS011;5248;47.374;8.486;2022-10-16T10:49:22;1.67;;;1.27;;
10403;SDS011;5248;47.374;8.486;2022-10-16T10:51:58;1.35;;;0.80;;
10403;SDS011;5248;47.374;8.486;2022-10-16T10:54:31;1.17;;;1.00;;
10403;SDS011;5248;47.374;8.486;2022-10-16T10:57:06;1.75;;;0.77;;
10403;SDS011;5248;47.374;8.486;2022-10-16T10:59:52;2.10;;;1.15;;
10403;SDS011;5248;47.374;8.486;2022-10-16T11:02:24;2.33;;;1.20;;
10403;SDS011;5248;47.374;8.486;2022-10-16T11:05:07;1.80;;;1.08;;
10403;SDS011;5248;47.374;8.486;2022-10-16T11:07:45;1.83;;;0.88;;
10403;SDS011;5248;47.374;8.486;2022-10-16T11:10:16;1.55;;;0.80;;
10403;SDS011;5248;47.374;8.486;2022-10-16T11:12:47;6.10;;;1.10;;
10403;SDS011;5248;47.374;8.486;2022-10-16T11:15:18;2.80;;;1.30;;
10403;SDS011;5248;47.374;8.486;2022-10-16T11:17:48;1.92;;;0.90;;
10403;SDS011;5248;47.374;8.486;2022-10-16T11:20:18;1.60;;;0.70;;
10403;SDS011;5248;47.374;8.486;2022-10-16T11:22:47;1.98;;;1.00;;
10403;SDS011;5248;47.374;8.486;2022-10-16T11:25:16;1.25;;;0.90;;
10403;SDS011;5248;47.374;8.486;2022-10-16T11:27:49;3.33;;;1.20;;
10403;SDS011;5248;47.374;8.486;2022-10-16T11:30:19;3.40;;;0.90;;
10403;SDS011;5248;47.374;8.486;2022-10-16T11:32:56;0.75;;;0.70;;
10403;SDS011;5248;47.374;8.486;2022-10-16T11:35:32;1.00;;;0.93;;
10403;SDS011;5248;47.374;8.486;2022-10-16T11:38:04;1.45;;;0.95;;
10403;SDS011;5248;47.374;8.486;2022-10-16T11:40:40;1.05;;;0.85;;
10403;SDS011;5248;47.374;8.486;2022-10-16T11:43:12;1.05;;;0.82;;
10403;SDS011;5248;47.374;8.486;2022-10-16T11:45:42;2.58;;;0.90;;
10403;SDS011;5248;47.374;8.486;2022-10-16T11:48:14;2.00;;;1.13;;
10403;SDS011;5248;47.374;8.486;2022-10-16T11:50:46;1.40;;;0.80;;
10403;SDS011;5248;47.374;8.486;2022-10-16T11:53:18;0.63;;;0.63;;
10403;SDS011;5248;47.374;8.486;2022-10-16T11:55:50;2.05;;;0.98;;
10403;SDS011;5248;47.374;8.486;2022-10-16T11:58:21;1.33;;;1.10;;
10403;SDS011;5248;47.374;8.486;2022-10-16T12:00:53;1.67;;;0.93;;
10403;SDS011;5248;47.374;8.486;2022-10-16T12:03:26;0.85;;;0.85;;
10403;SDS011;5248;47.374;8.486;2022-10-16T12:06:05;2.10;;;0.90;;
10403;SDS011;5248;47.374;8.486;2022-10-16T12:08:38;0.90;;;0.90;;
10403;SDS011;5248;47.374;8.486;2022-10-16T12:11:09;0.98;;;0.80;;
10403;SDS011;5248;47.374;8.486;2022-10-16T12:13:47;0.70;;;0.70;;
10403;SDS011;5248;47.374;8.486;2022-10-16T12:16:23;1.10;;;0.98;;
10403;SDS011;5248;47.374;8.486;2022-10-16T12:18:50;4.40;;;1.20;;
10403;SDS011;5248;47.374;8.486;2022-10-16T12:21:30;1.00;;;1.00;;
10403;SDS011;5248;47.374;8.486;2022-10-16T12:23:58;2.35;;;1.70;;
10403;SDS011;5248;47.374;8.486;2022-10-16T12:26:25;2.70;;;1.50;;
10403;SDS011;5248;47.374;8.486;2022-10-16T12:28:54;1.67;;;1.58;;
10403;SDS011;5248;47.374;8.486;2022-10-16T12:31:22;2.80;;;2.22;;
10403;SDS011;5248;47.374;8.486;2022-10-16T12:33:55;2.03;;;1.52;;
10403;SDS011;5248;47.374;8.486;2022-10-16T12:36:27;2.55;;;1.45;;
10403;SDS011;5248;47.374;8.486;2022-10-16T12:38:55;1.75;;;1.65;;
10403;SDS011;5248;47.374;8.486;2022-10-16T12:41:25;2.60;;;1.00;;
10403;SDS011;5248;47.374;8.486;2022-10-16T12:43:55;1.20;;;1.10;;
10403;SDS011;5248;47.374;8.486;2022-10-16T12:46:23;1.85;;;1.35;;
10403;SDS011;5248;47.374;8.486;2022-10-16T12:49:05;1.20;;;1.00;;
10403;SDS011;5248;47.374;8.486;2022-10-16T12:51:34;1.55;;;1.13;;
10403;SDS011;5248;47.374;8.486;2022-10-16T12:54:02;3.03;;;1.10;;
10403;SDS011;5248;47.374;8.486;2022-10-16T12:56:36;0.80;;;0.80;;
10403;SDS011;5248;47.374;8.486;2022-10-16T12:59:14;1.95;;;1.00;;
10403;SDS011;5248;47.374;8.486;2022-10-16T13:01:59;1.48;;;1.27;;
10403;SDS011;5248;47.374;8.486;2022-10-16T13:04:39;1.45;;;1.35;;
10403;SDS011;5248;47.374;8.486;2022-10-16T13:07:16;1.38;;;1.10;;
10403;SDS011;5248;47.374;8.486;2022-10-16T13:09:52;3.10;;;1.58;;
10403;SDS011;5248;47.374;8.486;2022-10-16T13:12:29;1.92;;;1.70;;
10403;SDS011;5248;47.374;8.486;2022-10-16T13:15:24;2.13;;;1.38;;
10403;SDS011;5248;47.374;8.486;2022-10-16T13:17:56;2.03;;;1.02;;
10403;SDS011;5248;47.374;8.486;2022-10-16T13:20:28;1.00;;;1.00;;
10403;SDS011;5248;47.374;8.486;2022-10-16T13:23:02;2.25;;;1.20;;
10403;SDS011;5248;47.374;8.486;2022-10-16T13:25:39;1.20;;;1.10;;
10403;SDS011;5248;47.374;8.486;2022-10-16T13:28:12;1.20;;;0.98;;
10403;SDS011;5248;47.374;8.486;2022-10-16T13:30:41;0.90;;;0.90;;
10403;SDS011;5248;47.374;8.486;2022-10-16T13:33:12;2.97;;;2.67;;
10403;SDS011;5248;47.374;8.486;2022-10-16T13:35:46;5.22;;;4.72;;
10403;SDS011;5248;47.374;8.486;2022-10-16T13:38:15;6.43;;;5.82;;
10403;SDS011;5248;47.374;8.486;2022-10-16T13:40:49;2.67;;;1.35;;
10403;SDS011;5248;47.374;8.486;2022-10-16T13:43:17;9.20;;;7.50;;
10403;SDS011;5248;47.374;8.486;2022-10-16T13:45:53;6.28;;;2.90;;
10403;SDS011;5248;47.374;8.486;2022-10-16T13:48:24;4.40;;;2.80;;
10403;SDS011;5248;47.374;8.486;2022-10-16T13:50:58;1.73;;;1.38;;
10403;SDS011;5248;47.374;8.486;2022-10-16T13:53:25;2.00;;;1.83;;
10403;SDS011;5248;47.374;8.486;2022-10-16T13:55:52;2.78;;;1.40;;
10403;SDS011;5248;47.374;8.486;2022-10-16T13:58:19;4.68;;;1.13;;
10403;SDS011;5248;47.374;8.486;2022-10-16T14:00:56;2.85;;;1.98;;
10403;SDS011;5248;47.374;8.486;2022-10-16T14:03:25;1.67;;;1.10;;
10403;SDS011;5248;47.374;8.486;2022-10-16T14:05:52;1.75;;;1.65;;
10403;SDS011;5248;47.374;8.486;2022-10-16T14:08:20;1.73;;;1.63;;
10403;SDS011;5248;47.374;8.486;2022-10-16T14:10:48;2.13;;;0.95;;
10403;SDS011;5248;47.374;8.486;2022-10-16T14:13:17;1.52;;;1.42;;
10403;SDS011;5248;47.374;8.486;2022-10-16T14:15:46;29.77;;;23.48;;
10403;SDS011;5248;47.374;8.486;2022-10-16T14:18:16;19.80;;;17.70;;
10403;SDS011;5248;47.374;8.486;2022-10-16T14:20:45;10.35;;;9.35;;
10403;SDS011;5248;47.374;8.486;2022-10-16T14:23:22;6.93;;;6.22;;
10403;SDS011;5248;47.374;8.486;2022-10-16T14:25:51;3.13;;;2.92;;
10403;SDS011;5248;47.374;8.486;2022-10-16T14:28:18;5.20;;;2.72;;
10403;SDS011;5248;47.374;8.486;2022-10-16T14:30:49;10.63;;;9.20;;
10403;SDS011;5248;47.374;8.486;2022-10-16T14:33:23;11.57;;;10.18;;
10403;SDS011;5248;47.374;8.486;2022-10-16T14:35:59;5.85;;;4.72;;
10403;SDS011;5248;47.374;8.486;2022-10-16T14:38:27;3.00;;;2.30;;
10403;SDS011;5248;47.374;8.486;2022-10-16T14:40:54;2.53;;;1.90;;
10403;SDS011;5248;47.374;8.486;2022-10-16T14:43:26;1.60;;;1.50;;
10403;SDS011;5248;47.374;8.486;2022-10-16T14:45:57;1.65;;;1.50;;
10403;SDS011;5248;47.374;8.486;2022-10-16T14:48:25;3.42;;;2.05;;
10403;SDS011;5248;47.374;8.486;2022-10-16T14:50:52;3.30;;;1.70;;
10403;SDS011;5248;47.374;8.486;2022-10-16T14:53:19;3.08;;;1.20;;
10403;SDS011;5248;47.374;8.486;2022-10-16T14:55:46;2.70;;;1.55;;
10403;SDS011;5248;47.374;8.486;2022-10-16T14:58:13;4.30;;;1.50;;
10403;SDS011;5248;47.374;8.486;2022-10-16T15:00:41;1.90;;;1.70;;
10403;SDS011;5248;47.374;8.486;2022-10-16T15:03:08;2.75;;;1.52;;
10403;SDS011;5248;47.374;8.486;2022-10-16T15:05:36;2.67;;;1.50;;
10403;SDS011;5248;47.374;8.486;2022-10-16T15:08:03;1.65;;;1.23;;
10403;SDS011;5248;47.374;8.486;2022-10-16T15:10:30;4.35;;;3.95;;
10403;SDS011;5248;47.374;8.486;2022-10-16T15:12:58;4.88;;;2.90;;
10403;SDS011;5248;47.374;8.486;2022-10-16T15:15:27;6.78;;;4.13;;
10403;SDS011;5248;47.374;8.486;2022-10-16T15:17:59;5.45;;;3.00;;
10403;SDS011;5248;47.374;8.486;2022-10-16T15:20:27;13.18;;;8.27;;
10403;SDS011;5248;47.374;8.486;2022-10-16T15:22:56;6.90;;;3.90;;